Portada
METAR-TAF:

METAR-TAF

Aeroports :

Rio Branco, Acre, Brasil

latitud: 10-00S, longitud: 067-48W, altitud: 142 m

Observació

L'informe es va fer fa 40 minuts, a les 03:00 UTC
Vent 2 kt del Oest/Sud-Oest
Temperatura 23°C
Humitat 100%
Pressió 1014 hPa
Visibilitat 10 km o més
Escasses núvols a una alçada de 1500 ft
Núvols disperses a una alçada de 10000 ft

METAR: SBRB 190300Z 24002KT 9999 FEW015 SCT100 23/23 Q1014

Hora: 22:40 (03:40 UTC)

Pronòstic

L'informe es va fer fa 5 hores i 18 minuts, a les 22:22 UTC
Pronòstic vàlid del 19 a les 00 UTC al 19 a les 12 UTC
Vent 5 kt del Sud
Visibilitat 10 km o més
Escasses núvols a una alçada de 1500 ft
Evolucionant progressivament
l' 19 a les 09 UTC al 19 a les 11 UTC
Visibilitat: 6000 m
Cel ennuvolat a una alçada de 1000 ft
plugim

TAF: SBRB 182222Z 1900/1912 17005KT 9999 FEW015 TN22/1909Z TX24/1912Z BECMG 1909/1911 6000 DZ BKN010 RMK PFV

Observacions i pronòstics meteorològics de més de 4000 aeroports (METAR i TAF).

Les estacions disponibles són els punts grocs i vermells al mapa.

Posi el ratolí al punt desitjat per veure el nom de l'estació.

Feu clic per veure les observacions i els pronòstics meteorològics.

Per canviar el mapa: feu clic els botons verds amb una creu de color negre per apropar; al botó verd amb un guió per allunyar la imatge; o en les fletxes verdes per a mapes adjacents.


METAR-TAF: